Time;durP1;ratioP1;P1;durP2;ratioP2;P2;SDS_P1;SDS_P2;PMS_P1;PMS_P2;Temp;Humidity;BMP_temperature;BMP_pressure;BME280_temperature;BME280_humidity;BME280_pressure;Samples;Min_cycle;Max_cycle;Signal;HPM_P1;HPM_P2
2021/10/02 00:34:44;;;;;;;6.38;2.85;;;14.40;89.70;;;;;;5032502;28;20402;-74
2021/10/02 00:45:19;;;;;;;7.68;3.90;;;14.40;90.00;;;;;;5032575;28;20192;-75
2021/10/02 00:47:44;;;;;;;6.88;3.75;;;14.40;90.00;;;;;;5032588;28;20112;-76
2021/10/02 00:50:10;;;;;;;6.30;3.80;;;14.40;90.10;;;;;;5032592;28;20459;-76
2021/10/02 00:52:36;;;;;;;8.90;4.57;;;14.40;90.20;;;;;;5032548;28;20375;-75
2021/10/02 00:55:02;;;;;;;7.40;4.30;;;14.40;90.20;;;;;;5032000;28;20466;-75
2021/10/02 00:57:28;;;;;;;6.45;3.90;;;14.40;90.30;;;;;;5032529;28;20026;-75
2021/10/02 00:59:54;;;;;;;7.82;4.93;;;14.40;90.10;;;;;;5032264;28;20030;-75
2021/10/02 01:02:47;;;;;;;5.95;4.10;;;14.40;90.20;;;;;;5032194;28;20379;-73
2021/10/02 01:05:35;;;;;;;8.63;4.10;;;14.40;90.20;;;;;;5032452;28;20032;-75
2021/10/02 01:08:28;;;;;;;7.70;4.05;;;14.40;89.50;;;;;;5032115;28;20545;-75
2021/10/02 01:11:06;;;;;;;8.82;4.45;;;14.40;89.90;;;;;;5032393;28;20026;-74
2021/10/02 01:13:56;;;;;;;8.88;5.53;;;14.40;89.30;;;;;;5032051;28;20034;-75
2021/10/02 01:16:32;;;;;;;11.93;6.82;;;14.40;89.70;;;;;;5038431;28;20101;-74
2021/10/02 01:19:19;;;;;;;7.75;4.78;;;14.40;89.80;;;;;;5037576;28;20022;-74
2021/10/02 01:21:47;;;;;;;9.98;5.80;;;14.40;89.60;;;;;;5039305;28;20036;-75
2021/10/02 01:24:41;;;;;;;10.45;5.70;;;14.40;90.00;;;;;;5036317;28;20056;-74
2021/10/02 01:27:37;;;;;;;7.43;5.05;;;14.40;89.40;;;;;;5035757;28;20022;-74
2021/10/02 01:30:08;;;;;;;5.72;4.25;;;14.40;89.60;;;;;;5035990;28;20031;-73
2021/10/02 01:32:44;;;;;;;9.10;5.75;;;14.40;89.10;;;;;;5036173;28;20026;-75
2021/10/02 01:48:34;;;;;;;9.38;5.63;;;14.40;90.00;;;;;;5036032;28;20032;-74
2021/10/02 01:51:02;;;;;;;10.98;6.60;;;14.40;89.50;;;;;;5034395;28;20078;-75
2021/10/02 01:53:33;;;;;;;8.95;5.85;;;14.40;89.50;;;;;;5035888;28;20033;-75
2021/10/02 01:56:15;;;;;;;8.65;6.63;;;14.40;90.00;;;;;;5040835;28;20033;-71
2021/10/02 01:58:43;;;;;;;11.48;6.93;;;14.40;90.10;;;;;;5044971;28;20043;-75
2021/10/02 02:01:09;;;;;;;9.27;6.22;;;14.40;90.10;;;;;;5034428;28;20378;-74
2021/10/02 02:03:39;;;;;;;11.80;6.72;;;14.50;90.20;;;;;;5035503;28;20033;-74
2021/10/02 02:06:06;;;;;;;9.27;6.67;;;14.50;90.30;;;;;;5035313;28;20175;-74
2021/10/02 02:08:34;;;;;;;11.10;6.03;;;14.50;90.40;;;;;;5037145;28;20272;-75
2021/10/02 02:11:00;;;;;;;8.10;5.65;;;14.50;90.20;;;;;;5035858;28;20029;-75
2021/10/02 02:13:27;;;;;;;10.45;6.00;;;14.50;90.20;;;;;;5039148;28;20018;-75
2021/10/02 02:15:56;;;;;;;13.48;6.95;;;14.50;89.90;;;;;;5036707;28;20053;-75
2021/10/02 02:18:23;;;;;;;8.80;5.80;;;14.50;90.10;;;;;;5035469;28;20548;-74
2021/10/02 02:20:55;;;;;;;10.27;5.93;;;14.50;90.30;;;;;;5033844;28;20473;-74
2021/10/02 02:23:21;;;;;;;9.35;6.03;;;14.50;90.40;;;;;;5034323;28;20029;-73
2021/10/02 02:25:47;;;;;;;11.90;7.55;;;14.50;90.30;;;;;;5038609;28;20086;-75
2021/10/02 02:28:13;;;;;;;7.25;5.03;;;14.50;90.40;;;;;;5041582;28;20426;-74
2021/10/02 02:30:39;;;;;;;8.40;6.03;;;14.50;90.00;;;;;;5036973;28;20021;-74
2021/10/02 02:33:05;;;;;;;10.70;5.60;;;14.50;90.10;;;;;;5033632;28;20052;-74
2021/10/02 02:35:31;;;;;;;6.85;4.28;;;14.50;90.20;;;;;;5034827;28;20115;-75
2021/10/02 02:37:58;;;;;;;10.00;5.38;;;14.50;90.30;;;;;;5034512;28;20018;-74
2021/10/02 02:40:24;;;;;;;9.18;5.82;;;14.50;90.20;;;;;;5035074;28;20455;-74
2021/10/02 02:42:50;;;;;;;7.97;5.68;;;14.60;90.30;;;;;;5033280;28;20032;-74
2021/10/02 02:45:16;;;;;;;9.48;5.88;;;14.60;90.30;;;;;;5035014;28;20600;-73
2021/10/02 02:47:51;;;;;;;7.40;5.65;;;14.50;90.30;;;;;;5034662;28;20022;-74
2021/10/02 02:50:27;;;;;;;10.38;5.70;;;14.60;90.20;;;;;;5034266;28;20036;-73
2021/10/02 02:53:41;;;;;;;12.02;6.50;;;14.60;90.30;;;;;;5033179;28;20019;-73
2021/10/02 02:56:18;;;;;;;8.57;5.57;;;14.60;90.40;;;;;;5033004;28;20053;-73
2021/10/02 02:58:50;;;;;;;9.48;5.97;;;14.60;90.30;;;;;;5033223;28;20018;-74
2021/10/02 03:01:19;;;;;;;8.82;5.70;;;14.50;90.10;;;;;;5034901;28;20022;-73
2021/10/02 03:03:46;;;;;;;14.10;6.80;;;14.50;90.10;;;;;;5039089;28;20021;-73
2021/10/02 03:06:13;;;;;;;8.40;4.80;;;14.50;90.10;;;;;;5048304;28;20029;-73
2021/10/02 03:08:43;;;;;;;7.30;4.65;;;14.50;90.00;;;;;;5050253;28;20030;-74
2021/10/02 03:11:10;;;;;;;16.17;5.43;;;14.50;88.10;;;;;;5034673;28;20049;-73
2021/10/02 03:13:38;;;;;;;9.70;4.90;;;14.50;88.40;;;;;;5034288;28;20033;-73
2021/10/02 03:16:12;;;;;;;12.07;4.82;;;14.50;88.60;;;;;;5032859;28;20033;-73
2021/10/02 03:18:41;;;;;;;7.60;4.57;;;14.50;87.40;;;;;;5033045;28;20052;-73
2021/10/02 03:21:08;;;;;;;14.65;7.00;;;14.50;87.60;;;;;;5034005;28;20028;-73
2021/10/02 03:23:34;;;;;;;8.40;5.75;;;14.50;87.70;;;;;;5034070;28;20033;-73
2021/10/02 03:26:01;;;;;;;10.15;5.80;;;14.50;87.70;;;;;;5033974;28;20017;-74
2021/10/02 03:28:29;;;;;;;9.43;5.45;;;14.50;87.80;;;;;;5033655;28;20029;-74
2021/10/02 03:30:56;;;;;;;13.40;5.28;;;14.50;87.50;;;;;;5033865;28;20030;-73
2021/10/02 03:33:23;;;;;;;9.57;5.05;;;14.50;88.00;;;;;;5032740;28;20022;-74
2021/10/02 03:35:49;;;;;;;8.82;5.85;;;14.50;87.70;;;;;;5032551;28;20470;-74
2021/10/02 03:38:15;;;;;;;8.55;5.00;;;14.50;87.40;;;;;;5033980;28;20036;-74
2021/10/02 03:40:44;;;;;;;13.05;7.40;;;14.50;87.90;;;;;;5034140;28;20052;-71
2021/10/02 03:43:12;;;;;;;10.40;7.45;;;14.50;88.40;;;;;;5032199;28;20160;-71
2021/10/02 03:45:38;;;;;;;10.13;5.85;;;14.50;88.30;;;;;;5035297;28;20155;-72
2021/10/02 03:48:10;;;;;;;8.88;6.50;;;14.50;87.90;;;;;;5032806;28;20049;-71
2021/10/02 03:50:46;;;;;;;7.50;5.38;;;14.60;87.80;;;;;;5032564;28;20139;-72
2021/10/02 03:53:27;;;;;;;9.30;4.85;;;14.50;87.70;;;;;;5032471;28;20026;-71
2021/10/02 03:55:58;;;;;;;7.18;4.80;;;14.50;87.10;;;;;;5032037;28;20037;-74
2021/10/02 03:58:24;;;;;;;9.77;5.22;;;14.50;87.50;;;;;;5032065;28;20023;-74
2021/10/02 04:00:49;;;;;;;9.82;6.75;;;14.50;87.10;;;;;;5032892;28;20057;-74
2021/10/02 04:03:15;;;;;;;11.10;5.90;;;14.40;87.30;;;;;;5032154;28;20025;-75
2021/10/02 04:05:41;;;;;;;9.55;5.88;;;14.40;87.40;;;;;;5033165;28;20048;-73
2021/10/02 04:08:07;;;;;;;11.40;6.18;;;14.40;86.80;;;;;;5031911;28;20029;-75
2021/10/02 04:10:32;;;;;;;9.35;5.97;;;14.40;87.40;;;;;;5033010;28;20029;-74
2021/10/02 04:12:58;;;;;;;12.00;6.63;;;14.40;87.40;;;;;;5031608;28;20025;-72
2021/10/02 04:15:24;;;;;;;12.80;6.53;;;14.30;87.20;;;;;;5031807;28;20124;-74
2021/10/02 04:17:50;;;;;;;13.05;8.00;;;14.40;87.20;;;;;;5033174;28;20283;-73
2021/10/02 04:20:16;;;;;;;9.23;6.13;;;14.30;87.20;;;;;;5031789;28;20032;-73
2021/10/02 04:22:42;;;;;;;12.48;7.38;;;14.30;87.50;;;;;;5033178;28;20022;-74
2021/10/02 04:25:08;;;;;;;11.30;6.03;;;14.30;87.70;;;;;;5031343;28;20025;-74
2021/10/02 04:27:33;;;;;;;12.07;8.13;;;14.30;87.20;;;;;;5032915;28;20025;-74
2021/10/02 04:29:59;;;;;;;10.65;7.47;;;14.30;87.90;;;;;;5032871;28;20025;-74
2021/10/02 04:32:25;;;;;;;14.38;6.82;;;14.30;88.10;;;;;;5032685;28;20026;-74
2021/10/02 04:34:51;;;;;;;13.05;7.03;;;14.30;87.40;;;;;;5032729;28;20037;-75
2021/10/02 04:37:16;;;;;;;10.68;7.05;;;14.30;87.60;;;;;;5031327;28;20065;-73
2021/10/02 04:39:42;;;;;;;10.35;6.90;;;14.30;88.40;;;;;;5033004;28;20489;-74
2021/10/02 04:42:07;;;;;;;10.52;6.43;;;14.40;87.00;;;;;;5031976;28;20485;-74
2021/10/02 04:44:33;;;;;;;12.20;6.97;;;14.30;87.70;;;;;;5032691;28;20044;-73
2021/10/02 04:46:59;;;;;;;10.38;6.80;;;14.30;87.30;;;;;;5032789;28;20028;-74
2021/10/02 04:49:25;;;;;;;11.80;7.88;;;14.30;87.50;;;;;;5034115;28;20025;-74
2021/10/02 04:51:51;;;;;;;13.73;8.32;;;14.30;87.60;;;;;;5037842;28;20382;-73
2021/10/02 04:54:17;;;;;;;9.07;6.65;;;14.30;87.40;;;;;;5040826;28;20170;-72
2021/10/02 04:56:44;;;;;;;14.45;8.43;;;14.30;86.50;;;;;;5039246;28;20025;-74
2021/10/02 04:59:09;;;;;;;15.07;7.80;;;14.30;87.20;;;;;;5032787;28;20022;-73
2021/10/02 05:01:35;;;;;;;11.00;8.02;;;14.20;87.30;;;;;;5032462;28;20029;-74
2021/10/02 05:04:01;;;;;;;13.90;8.70;;;14.20;87.60;;;;;;5032401;28;20087;-74
2021/10/02 05:06:28;;;;;;;13.50;9.98;;;14.20;88.30;;;;;;5035197;28;20155;-74
2021/10/02 05:08:53;;;;;;;13.50;8.13;;;14.20;88.30;;;;;;5040661;28;20032;-74
2021/10/02 05:11:19;;;;;;;25.23;15.40;;;14.30;88.10;;;;;;5034748;28;20030;-74
2021/10/02 05:13:45;;;;;;;27.13;18.10;;;14.30;90.00;;;;;;5032641;28;20026;-74
2021/10/02 05:16:11;;;;;;;21.70;14.77;;;14.20;90.80;;;;;;5031951;28;20466;-74
2021/10/02 05:18:36;;;;;;;19.17;14.73;;;14.10;91.00;;;;;;5032300;28;20030;-75
2021/10/02 05:21:02;;;;;;;19.70;14.63;;;14.10;91.40;;;;;;5032552;28;20133;-75
2021/10/02 05:23:28;;;;;;;13.18;9.55;;;14.10;91.50;;;;;;5032287;28;20030;-74
2021/10/02 05:25:54;;;;;;;22.48;14.98;;;14.00;91.10;;;;;;5032081;28;20022;-74
2021/10/02 05:28:23;;;;;;;19.25;12.70;;;13.90;91.30;;;;;;5030991;28;20374;-72
2021/10/02 05:30:50;;;;;;;20.92;14.80;;;13.90;91.50;;;;;;5032314;28;20104;-73
2021/10/02 05:33:15;;;;;;;23.58;15.98;;;13.90;91.70;;;;;;5031966;28;20033;-75
2021/10/02 05:35:41;;;;;;;25.52;17.98;;;13.90;91.50;;;;;;5031034;28;20068;-74
2021/10/02 05:38:07;;;;;;;24.63;16.23;;;13.80;91.90;;;;;;5032465;28;20029;-74
2021/10/02 05:40:33;;;;;;;26.80;15.82;;;13.80;92.20;;;;;;5032422;28;20024;-74
2021/10/02 05:43:01;;;;;;;20.65;14.88;;;13.80;92.40;;;;;;5032103;28;20036;-74
2021/10/02 05:45:26;;;;;;;24.80;15.95;;;13.80;92.50;;;;;;5032057;28;20405;-75
2021/10/02 05:47:52;;;;;;;18.77;15.43;;;13.80;92.60;;;;;;5036937;28;20477;-75
2021/10/02 05:50:18;;;;;;;23.20;14.68;;;13.70;92.10;;;;;;5035577;28;20500;-75
2021/10/02 05:52:43;;;;;;;18.13;12.98;;;13.70;92.30;;;;;;5031127;28;20021;-74
2021/10/02 05:55:10;;;;;;;20.55;13.70;;;13.70;92.50;;;;;;5030405;28;20478;-74
2021/10/02 05:57:36;;;;;;;19.42;13.13;;;13.60;92.60;;;;;;5030719;28;20034;-74
2021/10/02 06:00:07;;;;;;;18.52;11.88;;;13.60;92.70;;;;;;5030181;28;20063;-74
2021/10/02 06:02:33;;;;;;;19.35;13.82;;;13.60;92.70;;;;;;5030564;28;20513;-74
2021/10/02 06:04:59;;;;;;;21.60;14.73;;;13.50;92.90;;;;;;5031249;28;20060;-73
2021/10/02 06:07:25;;;;;;;17.35;11.10;;;13.50;92.60;;;;;;5033343;28;20022;-74
2021/10/02 06:09:51;;;;;;;21.70;14.38;;;13.40;92.70;;;;;;5035366;28;20053;-74
2021/10/02 06:12:17;;;;;;;20.60;15.48;;;13.50;92.90;;;;;;5033802;28;20029;-74
2021/10/02 06:14:43;;;;;;;19.63;13.45;;;13.50;93.10;;;;;;5035135;28;20103;-75
2021/10/02 06:17:09;;;;;;;23.05;16.08;;;13.50;93.10;;;;;;5035852;28;20454;-75
2021/10/02 06:19:34;;;;;;;20.77;14.73;;;13.50;93.30;;;;;;5036283;28;20053;-75
2021/10/02 06:22:00;;;;;;;21.75;15.27;;;13.50;93.40;;;;;;5033967;28;20489;-75
2021/10/02 06:24:26;;;;;;;18.10;13.52;;;13.60;93.70;;;;;;5035656;28;20033;-75
2021/10/02 06:26:51;;;;;;;20.88;13.38;;;13.70;93.70;;;;;;5034140;28;20025;-75
2021/10/02 06:29:17;;;;;;;21.38;14.13;;;13.90;93.60;;;;;;5033631;28;20018;-74
2021/10/02 06:31:43;;;;;;;17.67;12.95;;;14.10;93.40;;;;;;5033964;28;20382;-75
2021/10/02 06:34:08;;;;;;;17.83;11.48;;;14.10;92.80;;;;;;5035057;28;20033;-75
2021/10/02 06:36:34;;;;;;;17.50;12.40;;;14.20;92.60;;;;;;5033911;28;20454;-74
2021/10/02 06:39:02;;;;;;;16.48;12.50;;;14.30;92.50;;;;;;5034751;28;20028;-75
2021/10/02 06:41:27;;;;;;;17.05;10.45;;;14.40;92.10;;;;;;5045155;28;20064;-74
2021/10/02 06:43:53;;;;;;;14.52;9.60;;;14.40;92.00;;;;;;5046262;28;20021;-74
2021/10/02 06:46:19;;;;;;;20.50;11.25;;;14.40;91.50;;;;;;5038465;28;20021;-75
2021/10/02 06:48:44;;;;;;;15.07;11.48;;;14.40;91.00;;;;;;5034035;28;20446;-75
2021/10/02 06:51:10;;;;;;;22.20;13.43;;;14.30;91.30;;;;;;5033497;28;20026;-75
2021/10/02 06:53:36;;;;;;;11.93;8.10;;;14.30;91.60;;;;;;5034914;28;20029;-75
2021/10/02 06:56:02;;;;;;;15.38;9.80;;;14.40;91.20;;;;;;5033176;28;20381;-76
2021/10/02 06:58:28;;;;;;;15.70;10.27;;;14.50;90.90;;;;;;5033328;28;20021;-75
2021/10/02 07:00:54;;;;;;;19.42;11.45;;;14.50;90.20;;;;;;5034821;28;20037;-75
2021/10/02 07:03:19;;;;;;;21.83;14.07;;;14.60;90.30;;;;;;5033037;28;20116;-74
2021/10/02 07:05:45;;;;;;;18.65;10.25;;;14.70;90.10;;;;;;5034445;28;20605;-75
2021/10/02 07:08:11;;;;;;;16.45;11.10;;;14.80;90.20;;;;;;5032793;28;20117;-77
2021/10/02 07:10:36;;;;;;;19.65;11.95;;;14.80;89.50;;;;;;5033862;28;20025;-76
2021/10/02 07:13:02;;;;;;;20.30;13.27;;;14.80;89.20;;;;;;5032628;28;20022;-75
2021/10/02 07:15:28;;;;;;;14.13;9.90;;;14.90;89.60;;;;;;5032858;28;20030;-76
2021/10/02 07:17:54;;;;;;;20.00;13.75;;;14.80;88.70;;;;;;5032101;28;20030;-75
2021/10/02 07:20:22;;;;;;;12.55;7.95;;;14.80;88.80;;;;;;5034150;28;20101;-74
2021/10/02 07:22:49;;;;;;;12.57;9.43;;;14.80;87.90;;;;;;5032497;28;20116;-74
2021/10/02 07:25:16;;;;;;;17.90;12.77;;;14.90;85.00;;;;;;5016220;28;20474;-76
2021/10/02 07:27:42;;;;;;;17.27;12.23;;;14.80;87.70;;;;;;5033905;28;20105;-75
2021/10/02 07:30:09;;;;;;;21.98;15.38;;;14.80;88.10;;;;;;5032550;28;20025;-76
2021/10/02 07:32:35;;;;;;;17.55;11.32;;;14.90;88.20;;;;;;5032769;28;20468;-74
2021/10/02 07:35:02;;;;;;;15.52;11.20;;;14.80;87.20;;;;;;5033570;28;20025;-74
2021/10/02 07:37:27;;;;;;;15.02;9.32;;;14.80;87.90;;;;;;5032492;28;20144;-75
2021/10/02 07:39:53;;;;;;;18.98;13.23;;;14.80;86.60;;;;;;5034188;28;20029;-76
2021/10/02 07:42:19;;;;;;;16.08;10.10;;;14.70;86.40;;;;;;5032559;28;20021;-75
2021/10/02 07:44:53;;;;;;;17.38;11.35;;;14.70;86.30;;;;;;5033873;28;20025;-73
2021/10/02 07:47:21;;;;;;;20.58;14.02;;;14.70;87.40;;;;;;5034239;28;20018;-74
2021/10/02 07:49:49;;;;;;;21.33;12.15;;;14.60;88.10;;;;;;5036189;28;20105;-75
2021/10/02 07:52:15;;;;;;;15.38;11.40;;;14.70;88.60;;;;;;5038996;28;20021;-76
2021/10/02 07:54:42;;;;;;;15.55;11.38;;;14.70;88.90;;;;;;5033957;28;20080;-74
2021/10/02 07:57:08;;;;;;;24.77;16.10;;;14.80;88.80;;;;;;5033505;28;20022;-74
2021/10/02 07:59:34;;;;;;;21.65;12.95;;;14.90;88.20;;;;;;5033273;28;20083;-74
2021/10/02 08:02:00;;;;;;;21.30;14.40;;;15.10;87.40;;;;;;5032238;28;20044;-75
2021/10/02 08:04:26;;;;;;;15.13;8.02;;;15.10;87.00;;;;;;5033585;28;20565;-75
2021/10/02 08:06:53;;;;;;;18.38;12.90;;;15.20;84.40;;;;;;5033816;28;20037;-74
2021/10/02 08:09:20;;;;;;;14.93;10.63;;;15.20;86.20;;;;;;5033197;28;20060;-75
2021/10/02 08:11:46;;;;;;;17.85;9.15;;;15.40;85.10;;;;;;5033283;28;20038;-76
2021/10/02 08:14:12;;;;;;;14.13;10.02;;;15.50;83.60;;;;;;5031471;28;20025;-74
2021/10/02 08:16:38;;;;;;;20.25;14.38;;;15.50;84.30;;;;;;5031703;28;20232;-75
2021/10/02 08:19:07;;;;;;;17.52;11.95;;;15.60;84.90;;;;;;5031749;28;20093;-74
2021/10/02 08:21:34;;;;;;;18.23;10.93;;;15.50;84.30;;;;;;5032985;28;20026;-75
2021/10/02 08:24:02;;;;;;;15.88;11.07;;;15.50;85.00;;;;;;5033661;28;20124;-75
2021/10/02 08:26:30;;;;;;;18.25;11.77;;;15.50;83.90;;;;;;5031858;28;20130;-74
2021/10/02 08:28:55;;;;;;;15.35;11.38;;;15.60;85.50;;;;;;5038735;28;20028;-74
2021/10/02 08:31:23;;;;;;;20.58;11.32;;;15.60;85.50;;;;;;5038654;28;20022;-74
2021/10/02 08:33:50;;;;;;;16.90;11.68;;;15.70;84.40;;;;;;5036307;28;20029;-74
2021/10/02 08:36:16;;;;;;;18.83;10.75;;;15.80;84.60;;;;;;5033261;28;20034;-74
2021/10/02 08:38:42;;;;;;;16.95;9.90;;;15.80;83.40;;;;;;5031579;28;20044;-74
2021/10/02 08:41:08;;;;;;;17.73;12.10;;;15.80;83.40;;;;;;5032308;28;20405;-75
2021/10/02 08:43:36;;;;;;;11.98;8.65;;;15.80;83.70;;;;;;5032348;28;20364;-74
2021/10/02 08:46:04;;;;;;;13.68;7.90;;;15.90;83.40;;;;;;5032281;28;20025;-73
2021/10/02 08:48:31;;;;;;;19.77;10.95;;;16.00;82.70;;;;;;5032714;28;20032;-73
2021/10/02 08:51:00;;;;;;;15.07;9.35;;;16.20;83.60;;;;;;5032310;28;20017;-74
2021/10/02 08:53:29;;;;;;;15.02;10.30;;;16.30;81.80;;;;;;5031164;28;20080;-74
2021/10/02 08:55:55;;;;;;;14.80;8.45;;;16.30;82.20;;;;;;5032487;28;20044;-74
2021/10/02 08:58:21;;;;;;;13.18;9.52;;;16.20;82.80;;;;;;5032399;28;20047;-73
2021/10/02 09:00:47;;;;;;;15.05;9.60;;;16.10;83.10;;;;;;5032513;28;20033;-74
2021/10/02 09:03:13;;;;;;;14.98;8.95;;;16.10;82.80;;;;;;5031971;28;20425;-75
2021/10/02 09:05:38;;;;;;;16.58;8.45;;;16.10;82.50;;;;;;5032651;28;20116;-74
2021/10/02 09:08:05;;;;;;;15.40;8.15;;;16.10;82.80;;;;;;5031877;28;20096;-75
2021/10/02 09:10:33;;;;;;;11.52;6.60;;;16.20;82.80;;;;;;5031049;28;20072;-75
2021/10/02 09:12:59;;;;;;;13.88;6.93;;;16.10;81.80;;;;;;5030815;28;20069;-74
2021/10/02 09:15:25;;;;;;;12.30;7.97;;;16.00;82.20;;;;;;5031410;28;20496;-75
2021/10/02 09:17:52;;;;;;;20.98;9.27;;;16.00;82.30;;;;;;5032567;28;20105;-75
2021/10/02 09:20:19;;;;;;;17.58;8.18;;;15.90;82.60;;;;;;5030735;28;20516;-75
2021/10/02 09:23:12;;;;;;;15.98;9.02;;;15.80;82.90;;;;;;5032496;28;20387;-75
2021/10/02 09:25:46;;;;;;;16.13;9.05;;;15.90;82.90;;;;;;5031360;28;20439;-71
2021/10/02 09:28:14;;;;;;;11.68;5.75;;;15.80;83.10;;;;;;5032518;28;20033;-75
2021/10/02 09:30:43;;;;;;;13.57;7.05;;;15.80;83.30;;;;;;5031013;28;20456;-75
2021/10/02 09:33:11;;;;;;;8.93;4.72;;;16.20;83.30;;;;;;5032276;28;20022;-74
2021/10/02 09:35:39;;;;;;;12.43;5.90;;;16.50;80.70;;;;;;5032455;28;20060;-75
2021/10/02 09:38:12;;;;;;;11.90;6.65;;;16.80;80.00;;;;;;5032123;28;20038;-74
2021/10/02 09:40:40;;;;;;;11.40;5.88;;;16.90;79.70;;;;;;5030878;28;20079;-74
2021/10/02 09:43:06;;;;;;;10.48;4.60;;;16.90;79.50;;;;;;5035429;28;20022;-73
2021/10/02 09:45:40;;;;;;;11.02;4.03;;;16.90;79.30;;;;;;5036261;28;20113;-73
2021/10/02 09:48:09;;;;;;;14.43;5.90;;;16.90;79.10;;;;;;5034478;28;20022;-74
2021/10/02 09:50:40;;;;;;;11.70;5.28;;;16.90;79.50;;;;;;5034902;28;20112;-73
2021/10/02 09:53:11;;;;;;;9.68;5.20;;;16.90;79.70;;;;;;5035788;28;20040;-73
2021/10/02 09:55:42;;;;;;;10.60;4.85;;;17.00;79.60;;;;;;5035661;28;20079;-73
2021/10/02 09:58:27;;;;;;;15.02;5.90;;;17.20;79.30;;;;;;5035702;28;20057;-73
2021/10/02 10:00:53;;;;;;;12.73;5.22;;;17.40;78.90;;;;;;5035753;28;20033;-73
2021/10/02 10:03:19;;;;;;;11.00;6.18;;;17.60;78.40;;;;;;5035600;28;20071;-72
2021/10/02 10:05:47;;;;;;;9.88;4.53;;;17.80;78.30;;;;;;5034532;28;20025;-73
2021/10/02 10:08:18;;;;;;;11.43;4.63;;;17.90;76.10;;;;;;5035214;28;20119;-73
2021/10/02 10:10:43;;;;;;;9.32;3.70;;;17.80;76.10;;;;;;5035271;28;20028;-72
2021/10/02 10:13:15;;;;;;;9.50;4.43;;;17.70;76.80;;;;;;5035064;28;20021;-74
2021/10/02 10:15:49;;;;;;;8.90;3.67;;;17.50;77.10;;;;;;5035772;28;20028;-73
2021/10/02 10:18:24;;;;;;;11.60;4.32;;;17.40;78.00;;;;;;5044039;28;20067;-74
2021/10/02 10:20:59;;;;;;;16.02;4.15;;;17.30;78.10;;;;;;5043586;28;20021;-73
2021/10/02 10:23:39;;;;;;;9.68;4.50;;;17.10;79.00;;;;;;5038558;28;20024;-73
2021/10/02 10:26:08;;;;;;;11.90;4.30;;;17.00;79.30;;;;;;5035132;28;20028;-74
2021/10/02 10:28:36;;;;;;;9.32;4.38;;;16.90;80.70;;;;;;5035679;28;20029;-74
2021/10/02 10:31:14;;;;;;;9.57;4.35;;;16.90;80.00;;;;;;5036030;28;20049;-72
2021/10/02 10:33:42;;;;;;;8.07;4.00;;;16.90;80.00;;;;;;5041511;28;20017;-72
2021/10/02 10:36:09;;;;;;;7.28;3.75;;;17.00;80.10;;;;;;5038837;28;20064;-73
2021/10/02 10:38:35;;;;;;;10.05;4.70;;;17.00;80.20;;;;;;5017408;28;20076;-73
2021/10/02 10:41:03;;;;;;;4.78;2.38;;;17.00;79.80;;;;;;5012700;28;20400;-74
2021/10/02 10:43:30;;;;;;;6.85;3.38;;;17.00;79.60;;;;;;5013774;28;20029;-74
2021/10/02 10:46:03;;;;;;;6.10;2.92;;;17.00;79.30;;;;;;5014814;28;20025;-73
2021/10/02 10:48:29;;;;;;;11.23;4.03;;;17.10;78.90;;;;;;5013305;28;20022;-72
2021/10/02 10:51:01;;;;;;;6.65;3.38;;;17.20;77.80;;;;;;5012655;28;20033;-73
2021/10/02 10:53:37;;;;;;;7.85;3.47;;;17.30;78.00;;;;;;5012813;28;20605;-73
2021/10/02 10:56:05;;;;;;;7.45;3.05;;;17.30;78.10;;;;;;5014678;28;20034;-73
2021/10/02 10:58:32;;;;;;;10.05;3.63;;;17.30;78.10;;;;;;5014824;28;20112;-73
2021/10/02 11:01:03;;;;;;;6.30;3.17;;;17.40;77.30;;;;;;5012967;28;20030;-73
2021/10/02 11:03:54;;;;;;;8.68;2.42;;;17.40;76.30;;;;;;5013973;28;20478;-73
2021/10/02 11:06:40;;;;;;;8.98;2.65;;;17.70;76.80;;;;;;5012584;28;20030;-73
2021/10/02 11:09:07;;;;;;;5.22;2.28;;;17.80;75.40;;;;;;5013620;28;20026;-72
2021/10/02 11:11:45;;;;;;;12.23;2.95;;;17.80;75.40;;;;;;5012901;28;20072;-73
2021/10/02 11:14:12;;;;;;;9.55;2.08;;;17.70;75.20;;;;;;5012451;28;20165;-73
2021/10/02 11:16:40;;;;;;;9.80;2.78;;;17.70;76.00;;;;;;5014218;28;20041;-74
2021/10/02 11:19:36;;;;;;;10.57;2.85;;;17.60;76.50;;;;;;5013189;28;20375;-74
2021/10/02 11:22:14;;;;;;;5.07;1.95;;;17.40;77.90;;;;;;5009813;28;20498;-74
2021/10/02 11:24:41;;;;;;;3.72;1.95;;;17.30;76.80;;;;;;5013081;28;20026;-74
2021/10/02 11:27:07;;;;;;;6.60;1.90;;;17.30;77.50;;;;;;5012841;28;20508;-73
2021/10/02 11:29:34;;;;;;;4.72;1.90;;;17.20;78.00;;;;;;5014177;28;20033;-74
2021/10/02 11:32:33;;;;;;;5.80;1.80;;;17.20;77.70;;;;;;5014211;28;20017;-73
2021/10/02 11:35:17;;;;;;;4.25;1.38;;;17.10;78.00;;;;;;5009841;28;20045;-73
2021/10/02 11:37:59;;;;;;;3.65;1.83;;;17.10;78.30;;;;;;5014177;28;20029;-73
2021/10/02 11:40:39;;;;;;;4.80;2.05;;;17.20;78.40;;;;;;5013935;28;20021;-73
2021/10/02 11:43:18;;;;;;;2.65;1.55;;;17.20;78.20;;;;;;5014253;28;20029;-74
2021/10/02 11:45:46;;;;;;;13.60;2.90;;;17.30;78.00;;;;;;5013809;28;20380;-73
2021/10/02 11:48:20;;;;;;;4.78;2.30;;;17.40;77.50;;;;;;5013373;28;20030;-72
2021/10/02 11:51:12;;;;;;;4.70;2.22;;;17.60;77.30;;;;;;5012653;28;20037;-73
2021/10/02 11:53:43;;;;;;;4.47;2.28;;;17.70;77.00;;;;;;5016199;28;20164;-74
2021/10/02 11:56:16;;;;;;;5.55;1.92;;;17.80;77.00;;;;;;5015215;28;20120;-74
2021/10/02 11:58:42;;;;;;;3.97;1.58;;;17.70;77.50;;;;;;5014044;28;20084;-73
2021/10/02 12:01:19;;;;;;;5.68;2.38;;;17.80;77.60;;;;;;5012539;28;20474;-73
2021/10/02 12:03:45;;;;;;;4.43;1.30;;;17.80;77.50;;;;;;5014006;28;20018;-74
2021/10/02 12:06:11;;;;;;;5.05;1.25;;;17.80;77.00;;;;;;5022061;28;20145;-73
2021/10/02 12:08:39;;;;;;;6.07;2.05;;;17.80;76.90;;;;;;5021846;28;20129;-71
2021/10/02 12:11:10;;;;;;;3.40;1.67;;;18.00;76.60;;;;;;5017640;28;20108;-74
2021/10/02 12:13:39;;;;;;;2.47;1.20;;;18.10;76.10;;;;;;5013900;28;20014;-74
2021/10/02 12:16:14;;;;;;;2.92;1.40;;;18.30;75.20;;;;;;5013583;28;20062;-73
2021/10/02 12:18:50;;;;;;;3.28;1.30;;;18.40;74.90;;;;;;5013813;28;20079;-74
2021/10/02 12:21:22;;;;;;;4.03;1.70;;;18.40;75.00;;;;;;5013203;28;20110;-74
2021/10/02 12:23:52;;;;;;;3.85;1.50;;;18.40;75.20;;;;;;5013782;28;20034;-73
2021/10/02 12:26:18;;;;;;;3.78;1.45;;;18.40;75.20;;;;;;5012845;28;20056;-74
2021/10/02 12:28:43;;;;;;;4.15;1.70;;;18.50;74.80;;;;;;5013098;28;20026;-73
2021/10/02 12:31:09;;;;;;;2.58;1.00;;;18.50;74.20;;;;;;5013229;28;20036;-73
2021/10/02 12:33:35;;;;;;;2.85;1.30;;;18.40;74.80;;;;;;5013342;28;20083;-75
2021/10/02 12:36:00;;;;;;;3.42;1.50;;;18.30;74.90;;;;;;5012833;28;20026;-74
2021/10/02 12:38:42;;;;;;;3.03;1.65;;;18.10;75.10;;;;;;5011296;28;20356;-74
2021/10/02 12:41:08;;;;;;;3.88;1.80;;;17.90;74.90;;;;;;5012930;28;20086;-74
2021/10/02 12:43:34;;;;;;;5.18;1.58;;;17.80;76.20;;;;;;5012762;28;20048;-74
2021/10/02 12:46:01;;;;;;;4.13;1.48;;;17.80;76.40;;;;;;5013010;28;20463;-73
2021/10/02 12:48:27;;;;;;;3.85;1.52;;;17.70;76.80;;;;;;5011438;28;20029;-73
2021/10/02 12:50:53;;;;;;;6.47;1.83;;;17.70;77.00;;;;;;5012600;28;20026;-73
2021/10/02 12:53:19;;;;;;;5.70;1.75;;;17.70;76.70;;;;;;5012776;28;20114;-73
2021/10/02 12:55:45;;;;;;;4.85;1.80;;;17.70;77.30;;;;;;5012822;28;20048;-74
2021/10/02 12:58:16;;;;;;;3.20;1.58;;;17.70;77.60;;;;;;5013246;28;20034;-73
2021/10/02 13:00:42;;;;;;;3.75;1.55;;;17.70;77.40;;;;;;5011383;28;20088;-74
2021/10/02 13:03:10;;;;;;;5.70;1.40;;;17.60;77.50;;;;;;5011108;28;20109;-74
2021/10/02 13:05:37;;;;;;;1.95;0.80;;;17.60;77.60;;;;;;5012636;28;20093;-72
2021/10/02 13:08:06;;;;;;;3.83;1.00;;;17.60;77.70;;;;;;5012587;28;20022;-73
2021/10/02 13:10:33;;;;;;;2.15;1.00;;;17.60;77.70;;;;;;5011324;28;20022;-73
2021/10/02 13:13:04;;;;;;;2.55;1.20;;;17.60;77.90;;;;;;5013503;28;20041;-73
2021/10/02 13:15:37;;;;;;;2.67;1.15;;;17.60;78.50;;;;;;5018742;28;20045;-72
2021/10/02 13:18:24;;;;;;;4.28;1.40;;;17.60;78.50;;;;;;5019195;28;20026;-72
2021/10/02 13:20:54;;;;;;;6.38;2.00;;;17.70;79.10;;;;;;5016467;28;20056;-73
2021/10/02 13:23:33;;;;;;;7.13;1.50;;;17.70;79.10;;;;;;5016261;28;20065;-74
2021/10/02 13:26:01;;;;;;;3.67;1.50;;;17.70;78.30;;;;;;5016228;28;20402;-73
2021/10/02 13:28:30;;;;;;;4.57;1.20;;;17.70;78.10;;;;;;5015959;28;20030;-72
2021/10/02 13:31:07;;;;;;;2.42;1.15;;;17.70;78.00;;;;;;5015060;28;20437;-74
2021/10/02 13:33:40;;;;;;;2.97;0.90;;;17.60;78.50;;;;;;5015902;28;20030;-73
2021/10/02 13:36:06;;;;;;;3.42;1.27;;;17.50;78.50;;;;;;5015038;28;20030;-74
2021/10/02 13:38:41;;;;;;;5.75;1.50;;;17.50;78.80;;;;;;5013291;28;20022;-73
2021/10/02 13:41:09;;;;;;;2.88;1.10;;;17.50;79.60;;;;;;5014062;28;20109;-72
2021/10/02 13:44:00;;;;;;;2.13;1.27;;;17.50;78.90;;;;;;5015563;28;20032;-74